sensor_id;sensor_type;location;lat;lon;timestamp;P1;durP1;ratioP1;P2;durP2;ratioP2
56770;SDS011;42641;59.794;17.616;2023-02-01T00:00:24;5.90;;;2.37;;
56770;SDS011;42641;59.794;17.616;2023-02-01T00:02:50;7.13;;;2.20;;
56770;SDS011;42641;59.794;17.616;2023-02-01T00:05:17;4.57;;;2.27;;
56770;SDS011;42641;59.794;17.616;2023-02-01T00:07:46;3.13;;;2.20;;
56770;SDS011;42641;59.794;17.616;2023-02-01T00:10:13;2.90;;;1.80;;
56770;SDS011;42641;59.794;17.616;2023-02-01T00:12:40;4.40;;;2.27;;
56770;SDS011;42641;59.794;17.616;2023-02-01T00:15:06;4.93;;;1.90;;
56770;SDS011;42641;59.794;17.616;2023-02-01T00:17:33;3.73;;;1.93;;
56770;SDS011;42641;59.794;17.616;2023-02-01T00:19:59;3.63;;;1.90;;
56770;SDS011;42641;59.794;17.616;2023-02-01T00:22:26;2.73;;;2.03;;
56770;SDS011;42641;59.794;17.616;2023-02-01T00:24:52;3.97;;;1.80;;
56770;SDS011;42641;59.794;17.616;2023-02-01T00:27:19;2.80;;;2.10;;
56770;SDS011;42641;59.794;17.616;2023-02-01T00:29:46;4.03;;;2.00;;
56770;SDS011;42641;59.794;17.616;2023-02-01T00:32:13;3.50;;;1.97;;
56770;SDS011;42641;59.794;17.616;2023-02-01T00:34:40;5.60;;;2.10;;
56770;SDS011;42641;59.794;17.616;2023-02-01T00:37:06;4.30;;;2.30;;
56770;SDS011;42641;59.794;17.616;2023-02-01T00:39:33;3.97;;;2.43;;
56770;SDS011;42641;59.794;17.616;2023-02-01T00:42:00;4.63;;;1.87;;
56770;SDS011;42641;59.794;17.616;2023-02-01T00:44:27;6.37;;;1.90;;
56770;SDS011;42641;59.794;17.616;2023-02-01T00:46:54;2.93;;;2.00;;
56770;SDS011;42641;59.794;17.616;2023-02-01T00:49:20;3.50;;;1.90;;
56770;SDS011;42641;59.794;17.616;2023-02-01T00:51:47;6.03;;;2.03;;
56770;SDS011;42641;59.794;17.616;2023-02-01T00:54:14;4.07;;;2.00;;
56770;SDS011;42641;59.794;17.616;2023-02-01T00:56:40;4.60;;;2.27;;
56770;SDS011;42641;59.794;17.616;2023-02-01T00:59:07;4.70;;;1.97;;
56770;SDS011;42641;59.794;17.616;2023-02-01T01:01:36;2.73;;;2.00;;
56770;SDS011;42641;59.794;17.616;2023-02-01T01:04:03;2.93;;;2.00;;
56770;SDS011;42641;59.794;17.616;2023-02-01T01:06:31;4.17;;;1.90;;
56770;SDS011;42641;59.794;17.616;2023-02-01T01:08:59;2.87;;;1.80;;
56770;SDS011;42641;59.794;17.616;2023-02-01T01:11:29;3.37;;;2.30;;
56770;SDS011;42641;59.794;17.616;2023-02-01T01:13:58;5.63;;;1.97;;
56770;SDS011;42641;59.794;17.616;2023-02-01T01:16:26;4.23;;;2.33;;
56770;SDS011;42641;59.794;17.616;2023-02-01T01:18:54;4.37;;;1.90;;
56770;SDS011;42641;59.794;17.616;2023-02-01T01:21:23;5.37;;;2.20;;
56770;SDS011;42641;59.794;17.616;2023-02-01T01:23:49;4.27;;;1.87;;
56770;SDS011;42641;59.794;17.616;2023-02-01T01:26:17;5.37;;;2.20;;
56770;SDS011;42641;59.794;17.616;2023-02-01T01:28:45;2.07;;;1.40;;
56770;SDS011;42641;59.794;17.616;2023-02-01T01:31:13;3.40;;;1.90;;
56770;SDS011;42641;59.794;17.616;2023-02-01T01:33:41;3.23;;;1.60;;
56770;SDS011;42641;59.794;17.616;2023-02-01T01:36:10;2.57;;;1.80;;
56770;SDS011;42641;59.794;17.616;2023-02-01T01:38:38;4.70;;;1.80;;
56770;SDS011;42641;59.794;17.616;2023-02-01T01:41:06;1.77;;;1.60;;
56770;SDS011;42641;59.794;17.616;2023-02-01T01:43:47;3.57;;;1.70;;
56770;SDS011;42641;59.794;17.616;2023-02-01T01:46:18;5.43;;;1.50;;
56770;SDS011;42641;59.794;17.616;2023-02-01T01:48:47;2.97;;;2.00;;
56770;SDS011;42641;59.794;17.616;2023-02-01T01:51:19;2.13;;;1.43;;
56770;SDS011;42641;59.794;17.616;2023-02-01T01:53:50;2.43;;;2.13;;
56770;SDS011;42641;59.794;17.616;2023-02-01T01:56:25;5.40;;;1.70;;
56770;SDS011;42641;59.794;17.616;2023-02-01T01:58:53;5.10;;;1.77;;
56770;SDS011;42641;59.794;17.616;2023-02-01T02:01:21;5.33;;;2.03;;
56770;SDS011;42641;59.794;17.616;2023-02-01T02:03:47;5.70;;;1.97;;
56770;SDS011;42641;59.794;17.616;2023-02-01T02:06:28;7.07;;;1.87;;
56770;SDS011;42641;59.794;17.616;2023-02-01T02:09:05;3.20;;;1.70;;
56770;SDS011;42641;59.794;17.616;2023-02-01T02:11:32;5.50;;;2.10;;
56770;SDS011;42641;59.794;17.616;2023-02-01T02:13:59;5.27;;;2.00;;
56770;SDS011;42641;59.794;17.616;2023-02-01T02:16:40;6.33;;;1.80;;
56770;SDS011;42641;59.794;17.616;2023-02-01T02:26:55;5.63;;;2.00;;
56770;SDS011;42641;59.794;17.616;2023-02-01T02:30:02;3.27;;;1.67;;
56770;SDS011;42641;59.794;17.616;2023-02-01T02:32:54;3.80;;;1.70;;
56770;SDS011;42641;59.794;17.616;2023-02-01T02:35:48;1.83;;;1.70;;
56770;SDS011;42641;59.794;17.616;2023-02-01T02:44:28;3.53;;;1.90;;
56770;SDS011;42641;59.794;17.616;2023-02-01T02:47:24;3.93;;;2.03;;
56770;SDS011;42641;59.794;17.616;2023-02-01T02:52:58;8.00;;;1.90;;
56770;SDS011;42641;59.794;17.616;2023-02-01T02:55:55;3.60;;;1.90;;
56770;SDS011;42641;59.794;17.616;2023-02-01T02:58:42;2.80;;;2.00;;
56770;SDS011;42641;59.794;17.616;2023-02-01T03:01:28;1.93;;;1.60;;
56770;SDS011;42641;59.794;17.616;2023-02-01T03:04:14;5.13;;;1.97;;
56770;SDS011;42641;59.794;17.616;2023-02-01T03:06:45;4.13;;;2.03;;
56770;SDS011;42641;59.794;17.616;2023-02-01T03:09:31;2.83;;;1.80;;
56770;SDS011;42641;59.794;17.616;2023-02-01T03:12:04;4.73;;;1.70;;
56770;SDS011;42641;59.794;17.616;2023-02-01T03:14:57;3.53;;;1.70;;
56770;SDS011;42641;59.794;17.616;2023-02-01T03:17:30;3.93;;;1.73;;
56770;SDS011;42641;59.794;17.616;2023-02-01T03:20:00;2.70;;;1.77;;
56770;SDS011;42641;59.794;17.616;2023-02-01T03:22:29;2.90;;;1.70;;
56770;SDS011;42641;59.794;17.616;2023-02-01T03:25:03;4.87;;;1.63;;
56770;SDS011;42641;59.794;17.616;2023-02-01T03:28:06;6.03;;;2.00;;
56770;SDS011;42641;59.794;17.616;2023-02-01T03:30:36;5.73;;;1.83;;
56770;SDS011;42641;59.794;17.616;2023-02-01T03:33:06;3.80;;;1.60;;
56770;SDS011;42641;59.794;17.616;2023-02-01T03:38:33;4.03;;;1.93;;
56770;SDS011;42641;59.794;17.616;2023-02-01T03:44:12;4.63;;;1.70;;
56770;SDS011;42641;59.794;17.616;2023-02-01T03:47:10;4.27;;;1.90;;
56770;SDS011;42641;59.794;17.616;2023-02-01T03:49:49;4.00;;;1.63;;
56770;SDS011;42641;59.794;17.616;2023-02-01T03:55:14;3.67;;;1.70;;
56770;SDS011;42641;59.794;17.616;2023-02-01T03:57:44;3.73;;;1.87;;
56770;SDS011;42641;59.794;17.616;2023-02-01T04:00:18;3.27;;;1.73;;
56770;SDS011;42641;59.794;17.616;2023-02-01T04:02:50;3.80;;;1.80;;
56770;SDS011;42641;59.794;17.616;2023-02-01T04:05:18;3.53;;;1.80;;
56770;SDS011;42641;59.794;17.616;2023-02-01T04:07:53;5.37;;;1.70;;
56770;SDS011;42641;59.794;17.616;2023-02-01T04:10:20;5.03;;;2.20;;
56770;SDS011;42641;59.794;17.616;2023-02-01T04:12:46;4.23;;;2.07;;
56770;SDS011;42641;59.794;17.616;2023-02-01T04:15:12;3.60;;;1.70;;
56770;SDS011;42641;59.794;17.616;2023-02-01T04:17:39;3.50;;;1.70;;
56770;SDS011;42641;59.794;17.616;2023-02-01T04:20:06;3.20;;;1.87;;
56770;SDS011;42641;59.794;17.616;2023-02-01T04:22:32;3.17;;;1.60;;
56770;SDS011;42641;59.794;17.616;2023-02-01T04:25:01;5.67;;;1.73;;
56770;SDS011;42641;59.794;17.616;2023-02-01T04:27:29;3.53;;;1.70;;
56770;SDS011;42641;59.794;17.616;2023-02-01T04:29:55;3.20;;;1.67;;
56770;SDS011;42641;59.794;17.616;2023-02-01T04:32:22;2.47;;;1.77;;
56770;SDS011;42641;59.794;17.616;2023-02-01T04:34:48;3.90;;;1.67;;
56770;SDS011;42641;59.794;17.616;2023-02-01T04:37:14;5.73;;;2.00;;
56770;SDS011;42641;59.794;17.616;2023-02-01T04:39:41;3.70;;;1.70;;
56770;SDS011;42641;59.794;17.616;2023-02-01T04:42:07;2.43;;;1.50;;
56770;SDS011;42641;59.794;17.616;2023-02-01T04:44:34;5.23;;;1.93;;
56770;SDS011;42641;59.794;17.616;2023-02-01T04:47:02;4.27;;;1.50;;
56770;SDS011;42641;59.794;17.616;2023-02-01T04:49:28;5.20;;;2.03;;
56770;SDS011;42641;59.794;17.616;2023-02-01T04:51:55;2.23;;;1.87;;
56770;SDS011;42641;59.794;17.616;2023-02-01T04:54:21;5.00;;;1.83;;
56770;SDS011;42641;59.794;17.616;2023-02-01T04:56:48;3.93;;;2.33;;
56770;SDS011;42641;59.794;17.616;2023-02-01T04:59:16;5.30;;;1.93;;
56770;SDS011;42641;59.794;17.616;2023-02-01T05:01:43;3.07;;;1.70;;
56770;SDS011;42641;59.794;17.616;2023-02-01T05:04:09;5.23;;;1.80;;
56770;SDS011;42641;59.794;17.616;2023-02-01T05:06:35;2.07;;;1.40;;
56770;SDS011;42641;59.794;17.616;2023-02-01T05:09:02;1.83;;;1.60;;
56770;SDS011;42641;59.794;17.616;2023-02-01T05:11:28;3.53;;;1.83;;
56770;SDS011;42641;59.794;17.616;2023-02-01T05:14:13;3.47;;;1.80;;
56770;SDS011;42641;59.794;17.616;2023-02-01T05:16:40;4.33;;;1.70;;
56770;SDS011;42641;59.794;17.616;2023-02-01T05:19:06;4.10;;;2.03;;
56770;SDS011;42641;59.794;17.616;2023-02-01T05:21:32;3.33;;;1.60;;
56770;SDS011;42641;59.794;17.616;2023-02-01T05:23:59;2.97;;;1.70;;
56770;SDS011;42641;59.794;17.616;2023-02-01T05:26:45;5.23;;;1.87;;
56770;SDS011;42641;59.794;17.616;2023-02-01T05:29:15;3.10;;;1.90;;
56770;SDS011;42641;59.794;17.616;2023-02-01T05:31:46;3.53;;;1.90;;
56770;SDS011;42641;59.794;17.616;2023-02-01T05:34:13;3.90;;;1.93;;
56770;SDS011;42641;59.794;17.616;2023-02-01T05:36:40;5.40;;;1.87;;
56770;SDS011;42641;59.794;17.616;2023-02-01T05:39:09;5.27;;;2.20;;
56770;SDS011;42641;59.794;17.616;2023-02-01T05:41:36;2.63;;;1.70;;
56770;SDS011;42641;59.794;17.616;2023-02-01T05:44:02;2.43;;;2.07;;
56770;SDS011;42641;59.794;17.616;2023-02-01T05:46:29;2.00;;;1.60;;
56770;SDS011;42641;59.794;17.616;2023-02-01T05:48:55;2.83;;;2.00;;
56770;SDS011;42641;59.794;17.616;2023-02-01T05:51:22;7.30;;;2.30;;
56770;SDS011;42641;59.794;17.616;2023-02-01T05:53:48;3.03;;;1.70;;
56770;SDS011;42641;59.794;17.616;2023-02-01T05:56:15;3.27;;;1.80;;
56770;SDS011;42641;59.794;17.616;2023-02-01T05:58:41;3.03;;;1.53;;
56770;SDS011;42641;59.794;17.616;2023-02-01T06:01:07;3.60;;;1.77;;
56770;SDS011;42641;59.794;17.616;2023-02-01T06:03:34;9.07;;;2.17;;
56770;SDS011;42641;59.794;17.616;2023-02-01T06:06:01;3.87;;;1.87;;
56770;SDS011;42641;59.794;17.616;2023-02-01T06:08:27;6.17;;;2.13;;
56770;SDS011;42641;59.794;17.616;2023-02-01T06:11:00;5.33;;;1.80;;
56770;SDS011;42641;59.794;17.616;2023-02-01T06:13:30;5.53;;;2.00;;
56770;SDS011;42641;59.794;17.616;2023-02-01T06:15:57;4.83;;;2.03;;
56770;SDS011;42641;59.794;17.616;2023-02-01T06:18:24;7.37;;;2.00;;
56770;SDS011;42641;59.794;17.616;2023-02-01T06:20:57;5.97;;;2.20;;
56770;SDS011;42641;59.794;17.616;2023-02-01T06:23:25;5.13;;;1.97;;
56770;SDS011;42641;59.794;17.616;2023-02-01T06:25:57;6.93;;;1.90;;
56770;SDS011;42641;59.794;17.616;2023-02-01T06:28:29;3.23;;;1.97;;
56770;SDS011;42641;59.794;17.616;2023-02-01T06:30:56;3.93;;;2.07;;
56770;SDS011;42641;59.794;17.616;2023-02-01T06:33:24;4.10;;;2.07;;
56770;SDS011;42641;59.794;17.616;2023-02-01T06:35:58;2.47;;;2.03;;
56770;SDS011;42641;59.794;17.616;2023-02-01T06:38:25;4.87;;;1.83;;
56770;SDS011;42641;59.794;17.616;2023-02-01T06:40:53;4.83;;;1.90;;
56770;SDS011;42641;59.794;17.616;2023-02-01T06:43:24;6.17;;;2.20;;
56770;SDS011;42641;59.794;17.616;2023-02-01T06:45:51;2.80;;;1.73;;
56770;SDS011;42641;59.794;17.616;2023-02-01T06:48:18;5.10;;;2.03;;
56770;SDS011;42641;59.794;17.616;2023-02-01T06:50:45;6.87;;;1.80;;
56770;SDS011;42641;59.794;17.616;2023-02-01T06:53:11;4.20;;;2.53;;
56770;SDS011;42641;59.794;17.616;2023-02-01T06:55:37;3.67;;;1.90;;
56770;SDS011;42641;59.794;17.616;2023-02-01T06:58:04;18.97;;;2.33;;
56770;SDS011;42641;59.794;17.616;2023-02-01T07:00:30;3.60;;;1.90;;
56770;SDS011;42641;59.794;17.616;2023-02-01T07:02:57;8.03;;;1.70;;
56770;SDS011;42641;59.794;17.616;2023-02-01T07:05:25;4.93;;;2.20;;
56770;SDS011;42641;59.794;17.616;2023-02-01T07:07:51;11.17;;;2.30;;
56770;SDS011;42641;59.794;17.616;2023-02-01T07:10:18;8.57;;;2.13;;
56770;SDS011;42641;59.794;17.616;2023-02-01T07:12:44;6.13;;;2.10;;
56770;SDS011;42641;59.794;17.616;2023-02-01T07:15:10;14.03;;;2.97;;
56770;SDS011;42641;59.794;17.616;2023-02-01T07:17:37;6.57;;;2.17;;
56770;SDS011;42641;59.794;17.616;2023-02-01T07:20:03;6.33;;;2.30;;
56770;SDS011;42641;59.794;17.616;2023-02-01T07:22:30;4.60;;;2.17;;
56770;SDS011;42641;59.794;17.616;2023-02-01T07:24:57;5.10;;;1.93;;
56770;SDS011;42641;59.794;17.616;2023-02-01T07:27:23;5.10;;;2.30;;
56770;SDS011;42641;59.794;17.616;2023-02-01T07:29:51;4.07;;;2.20;;
56770;SDS011;42641;59.794;17.616;2023-02-01T07:32:18;8.90;;;2.70;;
56770;SDS011;42641;59.794;17.616;2023-02-01T07:34:44;8.57;;;2.17;;
56770;SDS011;42641;59.794;17.616;2023-02-01T07:37:11;6.40;;;2.07;;
56770;SDS011;42641;59.794;17.616;2023-02-01T07:39:37;6.47;;;2.00;;
56770;SDS011;42641;59.794;17.616;2023-02-01T07:42:04;7.23;;;2.43;;
56770;SDS011;42641;59.794;17.616;2023-02-01T07:44:31;5.97;;;2.17;;
56770;SDS011;42641;59.794;17.616;2023-02-01T07:46:57;4.03;;;2.20;;
56770;SDS011;42641;59.794;17.616;2023-02-01T07:49:23;10.70;;;2.20;;
56770;SDS011;42641;59.794;17.616;2023-02-01T07:51:50;7.80;;;2.03;;
56770;SDS011;42641;59.794;17.616;2023-02-01T07:54:16;3.73;;;1.90;;
56770;SDS011;42641;59.794;17.616;2023-02-01T07:56:43;3.27;;;2.10;;
56770;SDS011;42641;59.794;17.616;2023-02-01T07:59:09;7.17;;;2.50;;
56770;SDS011;42641;59.794;17.616;2023-02-01T08:01:36;3.43;;;2.13;;
56770;SDS011;42641;59.794;17.616;2023-02-01T08:04:03;3.87;;;2.20;;
56770;SDS011;42641;59.794;17.616;2023-02-01T08:06:32;12.97;;;6.50;;
56770;SDS011;42641;59.794;17.616;2023-02-01T08:09:00;6.63;;;2.27;;
56770;SDS011;42641;59.794;17.616;2023-02-01T08:11:27;6.50;;;2.17;;
56770;SDS011;42641;59.794;17.616;2023-02-01T08:13:54;4.60;;;2.17;;
56770;SDS011;42641;59.794;17.616;2023-02-01T08:16:22;4.03;;;2.00;;
56770;SDS011;42641;59.794;17.616;2023-02-01T08:18:49;4.70;;;2.23;;
56770;SDS011;42641;59.794;17.616;2023-02-01T08:21:17;6.07;;;2.70;;
56770;SDS011;42641;59.794;17.616;2023-02-01T08:23:45;4.83;;;2.80;;
56770;SDS011;42641;59.794;17.616;2023-02-01T08:26:19;5.23;;;2.80;;
56770;SDS011;42641;59.794;17.616;2023-02-01T08:28:48;8.67;;;2.87;;
56770;SDS011;42641;59.794;17.616;2023-02-01T08:31:17;4.23;;;2.50;;
56770;SDS011;42641;59.794;17.616;2023-02-01T08:33:50;3.27;;;1.70;;
56770;SDS011;42641;59.794;17.616;2023-02-01T08:36:19;8.03;;;2.13;;
56770;SDS011;42641;59.794;17.616;2023-02-01T08:38:45;4.50;;;2.20;;
56770;SDS011;42641;59.794;17.616;2023-02-01T08:41:13;5.97;;;1.90;;
56770;SDS011;42641;59.794;17.616;2023-02-01T08:43:42;5.93;;;2.57;;
56770;SDS011;42641;59.794;17.616;2023-02-01T08:46:09;5.43;;;2.50;;
56770;SDS011;42641;59.794;17.616;2023-02-01T08:48:37;3.00;;;2.10;;
56770;SDS011;42641;59.794;17.616;2023-02-01T08:51:04;10.83;;;2.70;;
56770;SDS011;42641;59.794;17.616;2023-02-01T08:53:33;4.97;;;2.27;;
56770;SDS011;42641;59.794;17.616;2023-02-01T08:55:59;10.03;;;2.43;;
56770;SDS011;42641;59.794;17.616;2023-02-01T08:58:26;6.90;;;2.07;;
56770;SDS011;42641;59.794;17.616;2023-02-01T09:00:53;6.20;;;2.00;;
56770;SDS011;42641;59.794;17.616;2023-02-01T09:03:19;5.80;;;2.00;;
56770;SDS011;42641;59.794;17.616;2023-02-01T09:05:45;8.03;;;2.10;;
56770;SDS011;42641;59.794;17.616;2023-02-01T09:08:13;5.90;;;2.13;;
56770;SDS011;42641;59.794;17.616;2023-02-01T09:10:41;8.23;;;2.23;;
56770;SDS011;42641;59.794;17.616;2023-02-01T09:13:08;4.93;;;2.00;;
56770;SDS011;42641;59.794;17.616;2023-02-01T09:15:34;5.33;;;1.80;;
56770;SDS011;42641;59.794;17.616;2023-02-01T09:18:02;9.43;;;2.20;;
56770;SDS011;42641;59.794;17.616;2023-02-01T09:20:28;4.03;;;2.00;;
56770;SDS011;42641;59.794;17.616;2023-02-01T09:22:55;5.70;;;2.07;;
56770;SDS011;42641;59.794;17.616;2023-02-01T09:25:21;3.70;;;2.00;;
56770;SDS011;42641;59.794;17.616;2023-02-01T09:27:48;14.80;;;2.30;;
56770;SDS011;42641;59.794;17.616;2023-02-01T09:30:14;5.97;;;1.97;;
56770;SDS011;42641;59.794;17.616;2023-02-01T09:32:41;2.33;;;1.77;;
56770;SDS011;42641;59.794;17.616;2023-02-01T09:35:07;7.53;;;1.97;;
56770;SDS011;42641;59.794;17.616;2023-02-01T09:37:34;5.40;;;1.87;;
56770;SDS011;42641;59.794;17.616;2023-02-01T09:40:01;4.67;;;1.80;;
56770;SDS011;42641;59.794;17.616;2023-02-01T09:42:52;3.60;;;2.20;;
56770;SDS011;42641;59.794;17.616;2023-02-01T09:45:36;5.27;;;2.00;;
56770;SDS011;42641;59.794;17.616;2023-02-01T09:48:17;3.37;;;1.90;;
56770;SDS011;42641;59.794;17.616;2023-02-01T09:50:49;4.20;;;1.90;;
56770;SDS011;42641;59.794;17.616;2023-02-01T09:53:21;4.60;;;2.20;;
56770;SDS011;42641;59.794;17.616;2023-02-01T09:56:00;5.40;;;1.70;;
56770;SDS011;42641;59.794;17.616;2023-02-01T09:59:32;5.53;;;1.87;;
56770;SDS011;42641;59.794;17.616;2023-02-01T10:01:54;5.97;;;1.63;;
56770;SDS011;42641;59.794;17.616;2023-02-01T10:04:21;5.60;;;1.70;;
56770;SDS011;42641;59.794;17.616;2023-02-01T10:09:31;3.87;;;1.70;;
56770;SDS011;42641;59.794;17.616;2023-02-01T10:23:13;4.20;;;1.40;;
56770;SDS011;42641;59.794;17.616;2023-02-01T10:28:50;5.40;;;1.40;;
56770;SDS011;42641;59.794;17.616;2023-02-01T10:31:18;2.17;;;1.60;;
56770;SDS011;42641;59.794;17.616;2023-02-01T10:33:49;2.33;;;1.50;;
56770;SDS011;42641;59.794;17.616;2023-02-01T10:36:23;3.37;;;1.50;;
56770;SDS011;42641;59.794;17.616;2023-02-01T10:38:59;5.27;;;1.67;;
56770;SDS011;42641;59.794;17.616;2023-02-01T10:41:30;1.83;;;1.40;;
56770;SDS011;42641;59.794;17.616;2023-02-01T10:44:10;4.43;;;1.47;;
56770;SDS011;42641;59.794;17.616;2023-02-01T10:46:39;3.73;;;1.40;;
56770;SDS011;42641;59.794;17.616;2023-02-01T10:49:08;3.00;;;1.60;;
56770;SDS011;42641;59.794;17.616;2023-02-01T10:54:46;2.00;;;1.20;;
56770;SDS011;42641;59.794;17.616;2023-02-01T10:57:20;1.60;;;1.20;;
56770;SDS011;42641;59.794;17.616;2023-02-01T10:59:50;2.57;;;1.30;;
56770;SDS011;42641;59.794;17.616;2023-02-01T11:02:23;2.47;;;1.30;;
56770;SDS011;42641;59.794;17.616;2023-02-01T11:05:03;1.47;;;1.10;;
56770;SDS011;42641;59.794;17.616;2023-02-01T11:07:34;2.00;;;1.20;;
56770;SDS011;42641;59.794;17.616;2023-02-01T11:10:03;3.20;;;1.13;;
56770;SDS011;42641;59.794;17.616;2023-02-01T11:12:34;1.73;;;1.20;;
56770;SDS011;42641;59.794;17.616;2023-02-01T11:17:40;2.90;;;1.60;;
56770;SDS011;42641;59.794;17.616;2023-02-01T11:20:19;2.47;;;1.40;;
56770;SDS011;42641;59.794;17.616;2023-02-01T11:22:58;3.47;;;1.40;;
56770;SDS011;42641;59.794;17.616;2023-02-01T11:25:25;2.20;;;1.40;;
56770;SDS011;42641;59.794;17.616;2023-02-01T11:27:53;6.53;;;1.70;;
56770;SDS011;42641;59.794;17.616;2023-02-01T11:30:31;1.30;;;1.17;;
56770;SDS011;42641;59.794;17.616;2023-02-01T11:33:03;3.97;;;1.37;;
56770;SDS011;42641;59.794;17.616;2023-02-01T11:35:31;2.10;;;1.70;;
56770;SDS011;42641;59.794;17.616;2023-02-01T11:37:58;2.70;;;1.47;;
56770;SDS011;42641;59.794;17.616;2023-02-01T11:40:27;1.67;;;1.50;;
56770;SDS011;42641;59.794;17.616;2023-02-01T11:43:00;4.17;;;1.50;;
56770;SDS011;42641;59.794;17.616;2023-02-01T11:45:55;1.93;;;1.23;;
56770;SDS011;42641;59.794;17.616;2023-02-01T11:48:27;10.00;;;2.00;;
56770;SDS011;42641;59.794;17.616;2023-02-01T11:54:02;3.07;;;1.33;;
56770;SDS011;42641;59.794;17.616;2023-02-01T11:56:44;2.43;;;1.40;;
56770;SDS011;42641;59.794;17.616;2023-02-01T12:16:07;2.93;;;1.20;;
56770;SDS011;42641;59.794;17.616;2023-02-01T12:44:02;3.17;;;1.27;;
56770;SDS011;42641;59.794;17.616;2023-02-01T12:46:39;7.23;;;1.10;;
56770;SDS011;42641;59.794;17.616;2023-02-01T12:51:52;7.27;;;1.27;;
56770;SDS011;42641;59.794;17.616;2023-02-01T12:54:32;3.37;;;0.93;;
56770;SDS011;42641;59.794;17.616;2023-02-01T12:57:27;3.03;;;1.30;;
56770;SDS011;42641;59.794;17.616;2023-02-01T13:00:02;3.57;;;1.20;;
56770;SDS011;42641;59.794;17.616;2023-02-01T13:02:53;4.03;;;1.20;;
56770;SDS011;42641;59.794;17.616;2023-02-01T13:08:19;2.53;;;1.30;;
56770;SDS011;42641;59.794;17.616;2023-02-01T13:10:58;2.90;;;1.50;;
56770;SDS011;42641;59.794;17.616;2023-02-01T13:16:15;1.90;;;1.10;;
56770;SDS011;42641;59.794;17.616;2023-02-01T13:18:57;3.37;;;1.20;;
56770;SDS011;42641;59.794;17.616;2023-02-01T13:21:31;2.30;;;1.00;;
56770;SDS011;42641;59.794;17.616;2023-02-01T13:24:01;4.13;;;1.10;;
56770;SDS011;42641;59.794;17.616;2023-02-01T13:26:27;2.40;;;1.00;;
56770;SDS011;42641;59.794;17.616;2023-02-01T13:29:04;7.90;;;1.40;;
56770;SDS011;42641;59.794;17.616;2023-02-01T13:37:40;3.03;;;1.10;;
56770;SDS011;42641;59.794;17.616;2023-02-01T13:40:31;2.43;;;1.20;;
56770;SDS011;42641;59.794;17.616;2023-02-01T13:43:02;3.43;;;1.17;;
56770;SDS011;42641;59.794;17.616;2023-02-01T13:45:57;3.13;;;1.20;;
56770;SDS011;42641;59.794;17.616;2023-02-01T13:51:11;4.27;;;1.17;;
56770;SDS011;42641;59.794;17.616;2023-02-01T13:53:44;5.23;;;1.20;;
56770;SDS011;42641;59.794;17.616;2023-02-01T13:56:20;3.20;;;1.10;;
56770;SDS011;42641;59.794;17.616;2023-02-01T13:58:49;2.60;;;0.90;;
56770;SDS011;42641;59.794;17.616;2023-02-01T14:03:52;3.07;;;1.13;;
56770;SDS011;42641;59.794;17.616;2023-02-01T14:11:52;4.30;;;1.20;;
56770;SDS011;42641;59.794;17.616;2023-02-01T14:19:28;2.83;;;1.60;;
56770;SDS011;42641;59.794;17.616;2023-02-01T14:22:00;5.00;;;2.23;;
56770;SDS011;42641;59.794;17.616;2023-02-01T14:24:52;4.60;;;1.83;;
56770;SDS011;42641;59.794;17.616;2023-02-01T14:27:26;7.10;;;2.30;;
56770;SDS011;42641;59.794;17.616;2023-02-01T14:29:59;3.10;;;1.80;;
56770;SDS011;42641;59.794;17.616;2023-02-01T14:32:37;3.93;;;1.40;;
56770;SDS011;42641;59.794;17.616;2023-02-01T14:35:08;5.10;;;1.57;;
56770;SDS011;42641;59.794;17.616;2023-02-01T14:37:50;2.87;;;1.33;;
56770;SDS011;42641;59.794;17.616;2023-02-01T14:40:20;3.80;;;1.50;;
56770;SDS011;42641;59.794;17.616;2023-02-01T14:42:51;6.43;;;2.30;;
56770;SDS011;42641;59.794;17.616;2023-02-01T14:47:52;4.03;;;1.70;;
56770;SDS011;42641;59.794;17.616;2023-02-01T15:00:51;2.70;;;1.53;;
56770;SDS011;42641;59.794;17.616;2023-02-01T15:06:14;6.10;;;2.67;;
56770;SDS011;42641;59.794;17.616;2023-02-01T15:09:04;8.60;;;2.40;;
56770;SDS011;42641;59.794;17.616;2023-02-01T15:15:05;3.07;;;1.90;;
56770;SDS011;42641;59.794;17.616;2023-02-01T15:17:54;5.20;;;1.90;;
56770;SDS011;42641;59.794;17.616;2023-02-01T15:20:29;6.33;;;1.90;;
56770;SDS011;42641;59.794;17.616;2023-02-01T15:22:58;9.53;;;2.60;;
56770;SDS011;42641;59.794;17.616;2023-02-01T15:25:29;8.80;;;2.10;;
56770;SDS011;42641;59.794;17.616;2023-02-01T15:27:57;6.60;;;1.97;;
56770;SDS011;42641;59.794;17.616;2023-02-01T15:30:25;10.77;;;2.17;;
56770;SDS011;42641;59.794;17.616;2023-02-01T15:33:07;4.30;;;1.93;;
56770;SDS011;42641;59.794;17.616;2023-02-01T15:35:48;16.37;;;2.70;;
56770;SDS011;42641;59.794;17.616;2023-02-01T15:41:08;11.13;;;2.90;;
56770;SDS011;42641;59.794;17.616;2023-02-01T15:46:14;8.67;;;2.63;;
56770;SDS011;42641;59.794;17.616;2023-02-01T15:48:45;12.17;;;3.43;;
56770;SDS011;42641;59.794;17.616;2023-02-01T15:51:19;11.37;;;4.00;;
56770;SDS011;42641;59.794;17.616;2023-02-01T15:54:13;6.47;;;4.60;;
56770;SDS011;42641;59.794;17.616;2023-02-01T15:56:49;18.37;;;5.10;;
56770;SDS011;42641;59.794;17.616;2023-02-01T16:05:25;8.57;;;4.57;;
56770;SDS011;42641;59.794;17.616;2023-02-01T16:08:04;13.00;;;3.60;;
56770;SDS011;42641;59.794;17.616;2023-02-01T16:10:41;7.20;;;2.70;;
56770;SDS011;42641;59.794;17.616;2023-02-01T16:13:09;7.93;;;3.40;;
56770;SDS011;42641;59.794;17.616;2023-02-01T16:15:37;14.13;;;3.17;;
56770;SDS011;42641;59.794;17.616;2023-02-01T16:18:04;8.13;;;2.73;;
56770;SDS011;42641;59.794;17.616;2023-02-01T16:20:33;6.57;;;2.40;;
56770;SDS011;42641;59.794;17.616;2023-02-01T16:23:01;5.20;;;2.20;;
56770;SDS011;42641;59.794;17.616;2023-02-01T16:25:29;7.23;;;2.30;;
56770;SDS011;42641;59.794;17.616;2023-02-01T16:27:55;5.90;;;2.53;;
56770;SDS011;42641;59.794;17.616;2023-02-01T16:30:22;5.20;;;2.20;;
56770;SDS011;42641;59.794;17.616;2023-02-01T16:32:53;10.03;;;2.60;;
56770;SDS011;42641;59.794;17.616;2023-02-01T16:37:52;4.80;;;2.47;;
56770;SDS011;42641;59.794;17.616;2023-02-01T16:40:19;6.00;;;2.70;;
56770;SDS011;42641;59.794;17.616;2023-02-01T16:42:48;6.10;;;2.37;;
56770;SDS011;42641;59.794;17.616;2023-02-01T16:45:16;5.17;;;2.20;;
56770;SDS011;42641;59.794;17.616;2023-02-01T16:47:47;12.90;;;2.70;;
56770;SDS011;42641;59.794;17.616;2023-02-01T16:50:18;9.03;;;2.50;;
56770;SDS011;42641;59.794;17.616;2023-02-01T16:52:48;11.00;;;2.90;;
56770;SDS011;42641;59.794;17.616;2023-02-01T16:55:15;4.77;;;2.77;;
56770;SDS011;42641;59.794;17.616;2023-02-01T16:57:43;10.97;;;2.80;;
56770;SDS011;42641;59.794;17.616;2023-02-01T17:00:11;11.77;;;3.50;;
56770;SDS011;42641;59.794;17.616;2023-02-01T17:02:38;6.87;;;3.37;;
56770;SDS011;42641;59.794;17.616;2023-02-01T17:05:05;11.93;;;4.10;;
56770;SDS011;42641;59.794;17.616;2023-02-01T17:07:31;9.10;;;3.50;;
56770;SDS011;42641;59.794;17.616;2023-02-01T17:09:58;6.73;;;3.50;;
56770;SDS011;42641;59.794;17.616;2023-02-01T17:12:25;5.03;;;2.20;;
56770;SDS011;42641;59.794;17.616;2023-02-01T17:14:55;4.40;;;2.00;;
56770;SDS011;42641;59.794;17.616;2023-02-01T17:17:23;7.07;;;2.43;;
56770;SDS011;42641;59.794;17.616;2023-02-01T17:19:56;4.23;;;2.40;;
56770;SDS011;42641;59.794;17.616;2023-02-01T17:22:23;6.07;;;2.30;;
56770;SDS011;42641;59.794;17.616;2023-02-01T17:24:49;3.80;;;2.00;;
56770;SDS011;42641;59.794;17.616;2023-02-01T17:27:16;5.13;;;2.13;;
56770;SDS011;42641;59.794;17.616;2023-02-01T17:29:43;6.10;;;2.33;;
56770;SDS011;42641;59.794;17.616;2023-02-01T17:32:14;3.20;;;2.07;;